El Jebel, Colorado
Current Conditions -  °F | °C
As of 6:15 PM on Tuesday 27 Jan 2015 (Local Time) from K5SM Reporting Station
Scattered Clouds Scattered Clouds  
Wind Chill: 32°   Ceiling: Unl
Heat Index: 32°   Visibility: 10mi
Dew Point: 23°   Wind: 0mph
Humidity: 69%   Direction: NA
Pressure: 30.35"   Gusts: NA
Location:  39.4°N, 107.09°W
Report Text: K5SM 280115Z AUTO 00000KT 10SM SCT048 SCT070 00/M05 A3035 RMK AO2
Loading
Personal Weather Stations






























Interactive Weather Map New forecast layout! Learn more

10-Day Weather Forecast

Advertisements
Track Severe Weather on mobile